Terminal Aerodrome Forecast
Issued by NWS

Home | Current Version | Previous Version | Text Only | Print | Product List | Glossary On
Versions: 1 2 3 4 5 6 7 8 9 10 11 12 13
000
FTUS45 KFGZ 011120
TAFSEZ
TAF
KSEZ 011120Z 0112/0212 04006KT P6SM -SHRA BKN070 BKN110
     FM011500 VRB04KT P6SM BKN070 BKN110
     FM011900 VRB06KT P6SM VCSH BKN060 BKN110
      TEMPO 0119/0123 VRB15G25KT 4SM TSRA OVC040CB
     FM020200 VRB04KT P6SM FEW060 SCT110=

USA.gov is the U.S. government's official web portal to all federal, state and local government web resources and services.